createdAt,value
2019-01-19T00:01:53.603Z,22.40
2019-01-19T00:04:19.562Z,22.40
2019-01-19T00:06:45.538Z,22.30
2019-01-19T00:09:11.593Z,22.30
2019-01-19T00:11:37.691Z,22.30
2019-01-19T00:14:03.636Z,22.20
2019-01-19T00:16:29.632Z,22.20
2019-01-19T00:18:55.690Z,22.20
2019-01-19T00:21:21.651Z,22.10
2019-01-19T00:23:47.596Z,22.10
2019-01-19T00:26:13.574Z,22.00
2019-01-19T00:28:39.509Z,22.00
2019-01-19T00:31:05.481Z,21.90
2019-01-19T00:33:31.453Z,21.90
2019-01-19T00:35:57.479Z,21.90
2019-01-19T00:38:23.414Z,21.80
2019-01-19T00:40:49.381Z,21.80
2019-01-19T00:43:15.363Z,21.80
2019-01-19T00:45:41.319Z,21.70
2019-01-19T00:48:07.288Z,21.70
2019-01-19T00:50:33.240Z,21.70
2019-01-19T00:52:59.211Z,21.60
2019-01-19T00:55:25.265Z,21.60
2019-01-19T00:57:51.506Z,21.50
2019-01-19T01:00:17.456Z,21.50
2019-01-19T01:02:43.416Z,21.50
2019-01-19T01:05:09.349Z,21.50
2019-01-19T01:07:35.331Z,21.40
2019-01-19T01:10:01.399Z,21.40
2019-01-19T01:12:27.383Z,21.40
2019-01-19T01:14:53.457Z,21.30
2019-01-19T01:17:19.439Z,21.30
2019-01-19T01:19:45.383Z,21.30
2019-01-19T01:22:11.547Z,21.30
2019-01-19T01:24:37.625Z,21.30
2019-01-19T01:27:03.569Z,21.30
2019-01-19T01:29:29.545Z,21.20
2019-01-19T01:31:55.502Z,21.20
2019-01-19T01:34:21.466Z,21.20
2019-01-19T01:36:47.417Z,21.20
2019-01-19T01:39:13.399Z,21.20
2019-01-19T01:41:39.335Z,21.20
2019-01-19T01:44:05.295Z,21.10
2019-01-19T01:46:31.271Z,21.10
2019-01-19T01:48:57.254Z,21.10
2019-01-19T01:51:23.203Z,21.10
2019-01-19T01:53:49.174Z,21.10
2019-01-19T01:56:15.113Z,21.10
2019-01-19T01:58:41.075Z,21.10
2019-01-19T02:01:07.063Z,21.00
2019-01-19T02:03:33.107Z,21.00
2019-01-19T02:05:59.069Z,21.00
2019-01-19T02:08:25.028Z,21.00
2019-01-19T02:10:50.999Z,20.90
2019-01-19T02:13:16.991Z,20.90
2019-01-19T02:15:43.032Z,20.90
2019-01-19T02:18:09.095Z,20.90
2019-01-19T02:20:35.051Z,20.90
2019-01-19T02:23:01.007Z,20.80
2019-01-19T02:25:26.961Z,20.80
2019-01-19T02:27:53.434Z,20.80
2019-01-19T02:30:19.416Z,20.80
2019-01-19T02:32:45.569Z,20.80
2019-01-19T02:35:11.546Z,20.70
2019-01-19T02:37:37.578Z,20.70
2019-01-19T02:40:03.512Z,20.70
2019-01-19T02:42:29.479Z,20.70
2019-01-19T02:44:55.430Z,20.60
2019-01-19T02:47:21.397Z,20.70
2019-01-19T02:49:49.046Z,20.60
2019-01-19T02:52:15.025Z,20.60
2019-01-19T02:54:41.088Z,20.60
2019-01-19T02:57:07.041Z,20.60
2019-01-19T02:59:32.979Z,20.60
2019-01-19T03:01:58.953Z,20.60
2019-01-19T03:04:24.993Z,20.60
2019-01-19T03:06:50.977Z,20.60
2019-01-19T03:09:16.929Z,20.60
2019-01-19T03:11:42.893Z,20.60
2019-01-19T03:14:08.936Z,20.50
2019-01-19T03:16:34.912Z,20.50
2019-01-19T03:19:00.866Z,20.50
2019-01-19T03:21:26.813Z,20.50
2019-01-19T03:23:52.797Z,20.50
2019-01-19T03:26:18.763Z,20.40
2019-01-19T03:28:44.836Z,20.40
2019-01-19T03:31:10.895Z,20.40
2019-01-19T03:33:36.845Z,20.40
2019-01-19T03:36:04.562Z,20.40
2019-01-19T03:38:30.670Z,20.40
2019-01-19T03:40:56.609Z,20.40
2019-01-19T03:43:22.595Z,20.40
2019-01-19T03:45:48.539Z,20.40
2019-01-19T03:48:14.476Z,20.40
2019-01-19T03:50:40.412Z,20.40
2019-01-19T03:53:06.343Z,20.30
2019-01-19T03:55:32.318Z,20.30
2019-01-19T03:57:58.245Z,20.30
2019-01-19T04:00:24.194Z,20.30
2019-01-19T04:02:50.139Z,20.30
2019-01-19T04:05:16.090Z,20.30
2019-01-19T04:07:42.201Z,20.30
2019-01-19T04:10:08.143Z,20.20
2019-01-19T04:12:34.111Z,20.20
2019-01-19T04:15:00.353Z,20.20
2019-01-19T04:17:26.442Z,20.20
2019-01-19T04:20:12.254Z,20.20
2019-01-19T04:22:38.209Z,20.70
2019-01-19T04:25:04.266Z,20.20
2019-01-19T04:27:30.212Z,20.20
2019-01-19T04:29:56.158Z,20.20
2019-01-19T04:32:22.112Z,20.20
2019-01-19T04:34:48.060Z,20.20
2019-01-19T04:37:14.034Z,20.20
2019-01-19T04:39:40.002Z,20.10
2019-01-19T04:42:06.454Z,20.10
2019-01-19T04:44:32.404Z,20.10
2019-01-19T04:46:58.366Z,20.10
2019-01-19T04:49:24.320Z,20.10
2019-01-19T04:51:50.298Z,20.10
2019-01-19T04:54:16.247Z,20.10
2019-01-19T04:56:42.290Z,20.10
2019-01-19T04:59:08.250Z,20.10
2019-01-19T05:01:34.298Z,20.00
2019-01-19T05:04:00.244Z,20.10
2019-01-19T05:06:30.508Z,20.10
2019-01-19T05:08:54.022Z,20.00
2019-01-19T05:11:19.967Z,20.00
2019-01-19T05:13:45.925Z,20.00
2019-01-19T05:16:11.869Z,20.00
2019-01-19T05:18:37.808Z,20.00
2019-01-19T05:21:04.071Z,20.00
2019-01-19T05:23:30.242Z,20.00
2019-01-19T05:25:56.202Z,20.00
2019-01-19T05:28:22.162Z,20.00
2019-01-19T05:30:48.103Z,20.00
2019-01-19T05:33:14.079Z,20.00
2019-01-19T05:35:40.110Z,19.90
2019-01-19T05:38:06.103Z,19.90
2019-01-19T05:40:32.045Z,19.90
2019-01-19T05:42:58.006Z,19.90
2019-01-19T05:45:24.063Z,19.90
2019-01-19T05:47:51.871Z,19.90
2019-01-19T05:50:17.830Z,19.90
2019-01-19T05:52:43.789Z,19.90
2019-01-19T05:55:09.732Z,19.90
2019-01-19T05:57:35.683Z,19.90
2019-01-19T06:00:01.651Z,19.90
2019-01-19T06:02:28.404Z,19.90
2019-01-19T06:04:54.366Z,19.90
2019-01-19T06:07:20.335Z,19.80
2019-01-19T06:09:46.435Z,19.80
2019-01-19T06:12:12.377Z,19.80
2019-01-19T06:14:38.332Z,19.80
2019-01-19T06:17:04.266Z,19.80
2019-01-19T06:19:30.614Z,19.80
2019-01-19T06:21:56.837Z,19.80
2019-01-19T06:24:22.795Z,19.80
2019-01-19T06:26:48.775Z,19.80
2019-01-19T06:29:14.723Z,19.80
2019-01-19T06:31:40.708Z,19.90
2019-01-19T06:34:06.755Z,19.90
2019-01-19T06:36:32.715Z,20.00
2019-01-19T06:38:58.764Z,20.00
2019-01-19T06:41:24.709Z,20.10
2019-01-19T06:43:50.675Z,20.20
2019-01-19T06:46:16.735Z,20.30
2019-01-19T06:48:42.681Z,20.40
2019-01-19T06:51:08.633Z,20.40
2019-01-19T06:53:34.588Z,20.60
2019-01-19T06:56:00.534Z,20.60
2019-01-19T06:58:26.497Z,20.70
2019-01-19T07:00:52.531Z,20.80
2019-01-19T07:03:18.499Z,20.90
2019-01-19T07:05:44.565Z,20.90
2019-01-19T07:08:10.502Z,21.00
2019-01-19T07:10:36.448Z,21.00
2019-01-19T07:13:02.411Z,21.00
2019-01-19T07:15:28.362Z,21.10
2019-01-19T07:17:56.396Z,21.10
2019-01-19T07:20:22.368Z,21.10
2019-01-19T07:22:48.417Z,21.10
2019-01-19T07:25:14.378Z,21.20
2019-01-19T07:27:43.300Z,21.20
2019-01-19T07:30:09.269Z,21.30
2019-01-19T07:32:35.219Z,21.30
2019-01-19T07:35:01.163Z,21.30
2019-01-19T07:37:27.112Z,21.30
2019-01-19T07:39:53.064Z,21.40
2019-01-19T07:42:19.034Z,21.40
2019-01-19T07:44:44.974Z,21.40
2019-01-19T07:47:11.345Z,21.40
2019-01-19T07:49:37.380Z,21.50
2019-01-19T07:52:03.350Z,21.50
2019-01-19T07:54:29.312Z,21.40
2019-01-19T07:56:55.378Z,21.40
2019-01-19T07:59:21.340Z,21.30
2019-01-19T08:01:47.373Z,21.30
2019-01-19T08:04:13.337Z,21.40
2019-01-19T08:06:39.273Z,21.40
2019-01-19T08:09:05.219Z,21.40
2019-01-19T08:11:31.160Z,21.50
2019-01-19T08:13:57.118Z,21.60
2019-01-19T08:16:23.074Z,21.60
2019-01-19T08:18:49.024Z,21.60
2019-01-19T08:21:14.995Z,21.70
2019-01-19T08:23:40.944Z,21.70
2019-01-19T08:26:06.914Z,21.80
2019-01-19T08:28:32.878Z,21.80
2019-01-19T08:30:58.818Z,21.90
2019-01-19T08:33:24.764Z,21.90
2019-01-19T08:35:51.020Z,21.90
2019-01-19T08:38:16.980Z,21.90
2019-01-19T08:40:43.039Z,22.00
2019-01-19T08:43:10.896Z,22.00
2019-01-19T08:45:37.072Z,22.00
2019-01-19T08:48:03.442Z,22.10
2019-01-19T08:50:29.527Z,22.10
2019-01-19T08:52:55.568Z,22.10
2019-01-19T08:55:21.619Z,22.10
2019-01-19T08:57:48.460Z,22.20
2019-01-19T09:00:14.540Z,23.00
2019-01-19T09:02:40.497Z,22.20
2019-01-19T09:05:06.530Z,22.10
2019-01-19T09:07:33.807Z,22.10
2019-01-19T09:10:00.244Z,22.00
2019-01-19T09:12:26.328Z,22.00
2019-01-19T09:14:52.376Z,22.00
2019-01-19T09:17:18.330Z,21.90
2019-01-19T09:19:44.282Z,21.90
2019-01-19T09:22:10.285Z,21.90
2019-01-19T09:24:36.324Z,22.00
2019-01-19T09:27:03.371Z,22.00
2019-01-19T09:29:29.338Z,22.10
2019-01-19T09:31:55.295Z,22.10
2019-01-19T09:34:21.240Z,22.10
2019-01-19T09:36:47.196Z,22.10
2019-01-19T09:39:13.161Z,22.20
2019-01-19T09:41:39.153Z,22.30
2019-01-19T09:44:05.235Z,22.30
2019-01-19T09:46:31.167Z,22.30
2019-01-19T09:48:57.280Z,22.30
2019-01-19T09:51:23.268Z,22.30
2019-01-19T09:53:49.222Z,22.30
2019-01-19T09:56:15.288Z,22.40
2019-01-19T09:58:41.263Z,22.40
2019-01-19T10:01:07.232Z,22.40
2019-01-19T10:03:33.175Z,22.40
2019-01-19T10:05:59.129Z,22.40
2019-01-19T10:08:25.085Z,22.50
2019-01-19T10:10:51.151Z,22.50
2019-01-19T10:13:17.097Z,22.40
2019-01-19T10:15:43.034Z,22.40
2019-01-19T10:18:09.101Z,22.30
2019-01-19T10:20:35.051Z,22.30
2019-01-19T10:23:01.017Z,22.20
2019-01-19T10:25:26.949Z,22.20
2019-01-19T10:27:52.917Z,22.20
2019-01-19T10:30:19.021Z,22.20
2019-01-19T10:32:45.068Z,22.30
2019-01-19T10:35:11.122Z,22.40
2019-01-19T10:37:37.061Z,22.50
2019-01-19T10:40:03.024Z,22.60
2019-01-19T10:42:28.959Z,22.60
2019-01-19T10:44:54.907Z,22.70
2019-01-19T10:47:20.867Z,22.70
2019-01-19T10:49:46.832Z,22.80
2019-01-19T10:52:12.787Z,22.80
2019-01-19T10:54:38.743Z,22.80
2019-01-19T10:57:04.685Z,22.80
2019-01-19T10:59:30.651Z,22.80
2019-01-19T11:01:56.716Z,22.80
2019-01-19T11:04:22.671Z,22.90
2019-01-19T11:06:48.595Z,22.90
2019-01-19T11:09:14.557Z,23.00
2019-01-19T11:11:40.510Z,23.00
2019-01-19T11:14:06.446Z,23.00
2019-01-19T11:16:32.425Z,23.00
2019-01-19T11:18:58.401Z,23.00
2019-01-19T11:21:24.341Z,23.10
2019-01-19T11:23:50.285Z,23.10
2019-01-19T11:26:16.252Z,23.10
2019-01-19T11:28:42.224Z,23.10
2019-01-19T11:31:08.305Z,23.10
2019-01-19T11:33:34.268Z,23.10
2019-01-19T11:36:00.205Z,23.20
2019-01-19T11:38:26.188Z,23.10
2019-01-19T11:40:52.230Z,23.20
2019-01-19T11:43:18.185Z,23.20
2019-01-19T11:45:44.154Z,23.20
2019-01-19T11:48:10.232Z,23.30
2019-01-19T11:50:36.266Z,23.30
2019-01-19T11:53:02.234Z,23.30
2019-01-19T11:55:28.204Z,23.30
2019-01-19T11:57:54.181Z,23.30
2019-01-19T12:00:20.277Z,23.30
2019-01-19T12:02:46.327Z,23.30
2019-01-19T12:05:12.296Z,23.30
2019-01-19T12:07:38.230Z,23.40
2019-01-19T12:10:04.190Z,23.40
2019-01-19T12:12:30.162Z,23.40
2019-01-19T12:14:56.136Z,23.40
2019-01-19T12:17:23.011Z,23.40
2019-01-19T12:19:48.962Z,23.40
2019-01-19T12:22:14.938Z,23.50
2019-01-19T12:24:40.957Z,23.40
2019-01-19T12:27:06.900Z,23.50
2019-01-19T12:29:32.857Z,23.50
2019-01-19T12:31:58.784Z,23.50
2019-01-19T12:34:24.753Z,23.50
2019-01-19T12:36:50.714Z,23.50
2019-01-19T12:39:16.694Z,23.50
2019-01-19T12:41:42.638Z,23.50
2019-01-19T12:44:08.590Z,23.50
2019-01-19T12:46:34.539Z,23.60
2019-01-19T12:49:00.524Z,23.60
2019-01-19T12:51:26.602Z,23.60
2019-01-19T12:53:52.624Z,23.60
2019-01-19T12:56:18.580Z,23.60
2019-01-19T12:58:44.569Z,23.60
2019-01-19T13:01:10.554Z,23.60
2019-01-19T13:03:36.588Z,23.60
2019-01-19T13:06:02.543Z,23.60
2019-01-19T13:08:34.345Z,23.60
2019-01-19T13:10:56.381Z,23.60
2019-01-19T13:13:22.348Z,23.60
2019-01-19T13:15:48.402Z,23.60
2019-01-19T13:18:14.351Z,23.60
2019-01-19T13:20:40.290Z,23.60
2019-01-19T13:23:06.248Z,23.60
2019-01-19T13:25:32.199Z,23.60
2019-01-19T13:27:58.334Z,23.60
2019-01-19T13:30:24.304Z,23.60
2019-01-19T13:32:50.259Z,23.60
2019-01-19T13:35:16.235Z,23.60
2019-01-19T13:37:42.277Z,23.60
2019-01-19T13:40:08.243Z,23.60
2019-01-19T13:42:34.217Z,23.60
2019-01-19T13:45:00.221Z,23.60
2019-01-19T13:47:26.215Z,23.60
2019-01-19T13:49:52.187Z,23.60
2019-01-19T13:52:18.155Z,23.60
2019-01-19T13:54:44.233Z,23.60
2019-01-19T13:57:11.761Z,23.60
2019-01-19T13:59:37.947Z,23.60
2019-01-19T14:02:03.894Z,23.60
2019-01-19T14:04:29.865Z,23.60
2019-01-19T14:06:56.013Z,23.60
2019-01-19T14:09:21.964Z,23.60
2019-01-19T14:11:47.909Z,23.60
2019-01-19T14:14:13.849Z,23.60
2019-01-19T14:16:39.843Z,23.60
2019-01-19T14:19:05.889Z,23.60
2019-01-19T14:21:31.871Z,23.70
2019-01-19T14:23:58.128Z,23.70
2019-01-19T14:26:24.077Z,23.70
2019-01-19T14:28:50.015Z,23.70
2019-01-19T14:31:15.978Z,23.70
2019-01-19T14:33:41.923Z,23.70
2019-01-19T14:36:08.379Z,23.70
2019-01-19T14:38:34.325Z,23.70
2019-01-19T14:41:00.267Z,23.70
2019-01-19T14:43:26.213Z,23.70
2019-01-19T14:45:52.272Z,23.70
2019-01-19T14:48:18.240Z,23.70
2019-01-19T14:50:44.265Z,23.80
2019-01-19T14:53:10.231Z,23.70
2019-01-19T14:55:36.166Z,23.70
2019-01-19T14:58:02.150Z,23.70
2019-01-19T15:00:28.119Z,23.70
2019-01-19T15:02:54.097Z,23.80
2019-01-19T15:05:20.051Z,23.70
2019-01-19T15:07:47.132Z,23.80
2019-01-19T15:10:13.097Z,23.80
2019-01-19T15:12:39.034Z,23.80
2019-01-19T15:15:05.186Z,23.80
2019-01-19T15:17:31.124Z,23.80
2019-01-19T15:19:57.102Z,23.80
2019-01-19T15:22:23.293Z,23.80
2019-01-19T15:24:49.305Z,23.80
2019-01-19T15:27:15.244Z,23.80
2019-01-19T15:29:41.197Z,23.80
2019-01-19T15:32:07.137Z,23.80
2019-01-19T15:34:33.089Z,23.80
2019-01-19T15:36:59.012Z,23.80
2019-01-19T15:39:25.009Z,23.80
2019-01-19T15:41:50.968Z,23.80
2019-01-19T15:44:16.906Z,23.80
2019-01-19T15:46:42.878Z,23.80
2019-01-19T15:49:08.934Z,23.80
2019-01-19T15:51:34.916Z,23.80
2019-01-19T15:54:00.970Z,23.80
2019-01-19T15:56:26.981Z,23.80
2019-01-19T15:58:52.990Z,23.80
2019-01-19T16:01:18.970Z,23.80
2019-01-19T16:03:45.006Z,23.80
2019-01-19T16:06:11.059Z,23.80
2019-01-19T16:08:37.004Z,23.70
2019-01-19T16:11:02.948Z,23.80
2019-01-19T16:13:28.919Z,23.80
2019-01-19T16:15:54.964Z,23.80
2019-01-19T16:18:21.083Z,23.80
2019-01-19T16:20:47.035Z,23.80
2019-01-19T16:23:13.016Z,23.80
2019-01-19T16:25:39.080Z,23.80
2019-01-19T16:28:05.040Z,23.90
2019-01-19T16:30:30.983Z,23.90
2019-01-19T16:32:56.940Z,23.90
2019-01-19T16:35:22.894Z,23.90
2019-01-19T16:37:48.829Z,23.90
2019-01-19T16:40:14.797Z,23.90
2019-01-19T16:42:40.735Z,23.90
2019-01-19T16:45:06.706Z,24.00
2019-01-19T16:47:32.853Z,24.00
2019-01-19T16:49:58.898Z,24.00
2019-01-19T16:52:24.846Z,24.00
2019-01-19T16:54:51.020Z,24.00
2019-01-19T16:57:18.951Z,24.00
2019-01-19T16:59:45.229Z,23.90
2019-01-19T17:02:11.176Z,24.00
2019-01-19T17:04:37.260Z,24.00
2019-01-19T17:07:03.205Z,24.00
2019-01-19T17:09:33.164Z,24.00
2019-01-19T17:11:56.995Z,24.00
2019-01-19T17:14:22.954Z,24.00
2019-01-19T17:16:48.908Z,24.00
2019-01-19T17:19:14.864Z,24.00
2019-01-19T17:21:40.846Z,24.00
2019-01-19T17:24:06.785Z,24.00
2019-01-19T17:26:32.741Z,24.00
2019-01-19T17:28:58.708Z,23.90
2019-01-19T17:31:24.780Z,23.90
2019-01-19T17:33:50.831Z,23.90
2019-01-19T17:36:16.763Z,23.90
2019-01-19T17:38:42.832Z,23.90
2019-01-19T17:41:08.823Z,23.90
2019-01-19T17:43:34.769Z,23.90
2019-01-19T17:46:00.799Z,23.90
2019-01-19T17:48:26.748Z,23.90
2019-01-19T17:50:52.716Z,23.90
2019-01-19T17:53:18.656Z,23.90
2019-01-19T17:55:44.598Z,23.90
2019-01-19T17:58:10.555Z,23.90
2019-01-19T18:00:36.523Z,23.90
2019-01-19T18:03:02.588Z,23.90
2019-01-19T18:05:28.670Z,23.90
2019-01-19T18:07:54.640Z,24.00
2019-01-19T18:10:20.602Z,24.00
2019-01-19T18:12:46.555Z,24.10
2019-01-19T18:15:12.522Z,24.30
2019-01-19T18:17:38.452Z,24.40
2019-01-19T18:20:04.409Z,24.50
2019-01-19T18:22:30.355Z,24.70
2019-01-19T18:24:56.437Z,24.80
2019-01-19T18:27:22.501Z,24.90
2019-01-19T18:29:48.527Z,25.00
2019-01-19T18:32:14.517Z,25.20
2019-01-19T18:34:40.525Z,25.30
2019-01-19T18:37:06.637Z,25.40
2019-01-19T18:39:32.996Z,25.40
2019-01-19T18:41:58.967Z,25.50
2019-01-19T18:44:25.966Z,25.60
2019-01-19T18:46:52.019Z,25.70
2019-01-19T18:49:25.673Z,25.80
2019-01-19T18:51:51.981Z,25.80
2019-01-19T18:54:18.103Z,25.90
2019-01-19T18:56:44.127Z,25.90
2019-01-19T18:59:10.095Z,26.00
2019-01-19T19:01:36.078Z,26.00
2019-01-19T19:04:02.127Z,26.00
2019-01-19T19:06:28.091Z,25.70
2019-01-19T19:08:54.049Z,25.50
2019-01-19T19:11:20.107Z,25.20
2019-01-19T19:13:46.074Z,25.00
2019-01-19T19:16:12.257Z,24.80
2019-01-19T19:18:38.201Z,24.70
2019-01-19T19:21:04.169Z,24.60
2019-01-19T19:23:30.111Z,24.50
2019-01-19T19:25:56.105Z,24.40
2019-01-19T19:28:22.177Z,24.30
2019-01-19T19:30:48.207Z,24.20
2019-01-19T19:33:14.162Z,24.10
2019-01-19T19:35:40.090Z,24.10
2019-01-19T19:38:06.175Z,24.10
2019-01-19T19:40:32.226Z,24.10
2019-01-19T19:42:58.210Z,24.10
2019-01-19T19:45:24.261Z,24.10
2019-01-19T19:47:50.247Z,24.10
2019-01-19T19:50:16.308Z,24.10
2019-01-19T19:52:42.255Z,24.10
2019-01-19T19:55:08.217Z,24.10
2019-01-19T19:57:34.180Z,24.10
2019-01-19T20:00:00.191Z,24.20
2019-01-19T20:02:26.363Z,24.20
2019-01-19T20:04:52.322Z,24.20
2019-01-19T20:07:18.260Z,24.30
2019-01-19T20:09:44.215Z,24.20
2019-01-19T20:12:10.269Z,24.20
2019-01-19T20:14:36.231Z,24.20
2019-01-19T20:17:02.275Z,24.20
2019-01-19T20:19:28.247Z,24.20
2019-01-19T20:21:54.237Z,24.20
2019-01-19T20:24:20.219Z,24.20
2019-01-19T20:26:46.195Z,24.20
2019-01-19T20:29:12.171Z,24.20
2019-01-19T20:31:38.248Z,24.30
2019-01-19T20:34:04.223Z,24.30
2019-01-19T20:36:30.193Z,24.30
2019-01-19T20:38:56.160Z,24.40
2019-01-19T20:41:22.121Z,24.40
2019-01-19T20:43:48.085Z,24.50
2019-01-19T20:46:14.062Z,24.40
2019-01-19T20:48:40.002Z,24.40
2019-01-19T20:51:05.992Z,24.40
2019-01-19T20:53:32.778Z,24.40
2019-01-19T20:55:58.766Z,24.30
2019-01-19T20:58:24.770Z,24.20
2019-01-19T21:00:50.738Z,24.20
2019-01-19T21:03:16.780Z,24.20
2019-01-19T21:05:42.734Z,24.20
2019-01-19T21:08:08.716Z,24.20
2019-01-19T21:10:34.768Z,24.10
2019-01-19T21:13:00.726Z,24.10
2019-01-19T21:15:26.676Z,24.10
2019-01-19T21:17:55.852Z,24.10
2019-01-19T21:20:20.479Z,24.00
2019-01-19T21:22:46.456Z,24.00
2019-01-19T21:25:12.416Z,24.00
2019-01-19T21:27:38.412Z,24.00
2019-01-19T21:30:04.732Z,24.00
2019-01-19T21:32:30.796Z,23.90
2019-01-19T21:34:56.845Z,23.90
2019-01-19T21:37:22.821Z,23.90
2019-01-19T21:39:48.836Z,23.90
2019-01-19T21:42:14.880Z,23.80
2019-01-19T21:44:40.848Z,23.80
2019-01-19T21:47:06.809Z,23.90
2019-01-19T21:49:32.762Z,24.00
2019-01-19T21:51:58.826Z,24.00
2019-01-19T21:54:24.886Z,24.10
2019-01-19T21:56:50.980Z,24.10
2019-01-19T21:59:17.050Z,24.10
2019-01-19T22:01:42.988Z,24.20
2019-01-19T22:04:08.961Z,24.20
2019-01-19T22:06:34.909Z,24.30
2019-01-19T22:09:00.877Z,24.20
2019-01-19T22:11:26.835Z,24.20
2019-01-19T22:13:52.786Z,24.20
2019-01-19T22:16:18.747Z,24.20
2019-01-19T22:18:44.731Z,24.20
2019-01-19T22:21:10.717Z,24.10
2019-01-19T22:23:36.779Z,24.10
2019-01-19T22:26:02.956Z,24.10
2019-01-19T22:28:29.028Z,24.00
2019-01-19T22:30:54.983Z,24.00
2019-01-19T22:33:21.329Z,24.00
2019-01-19T22:35:47.297Z,24.00
2019-01-19T22:38:13.265Z,24.00
2019-01-19T22:40:39.242Z,23.90
2019-01-19T22:43:05.455Z,23.90
2019-01-19T22:45:31.553Z,23.80
2019-01-19T22:47:57.603Z,23.80
2019-01-19T22:50:23.570Z,23.70
2019-01-19T22:52:49.624Z,23.70
2019-01-19T22:55:15.597Z,23.70
2019-01-19T22:57:41.571Z,23.60
2019-01-19T23:00:07.557Z,23.60
2019-01-19T23:02:33.639Z,23.70
2019-01-19T23:04:59.659Z,23.70
2019-01-19T23:07:25.625Z,23.70
2019-01-19T23:09:51.689Z,23.70
2019-01-19T23:12:17.649Z,23.70
2019-01-19T23:14:43.991Z,23.60
2019-01-19T23:17:09.978Z,23.60
2019-01-19T23:19:35.951Z,23.50
2019-01-19T23:22:01.955Z,23.50
2019-01-19T23:24:27.983Z,23.40
2019-01-19T23:26:55.139Z,23.40
2019-01-19T23:29:21.119Z,23.30
2019-01-19T23:31:47.095Z,23.30
2019-01-19T23:34:13.061Z,23.30
2019-01-19T23:36:39.109Z,23.20
2019-01-19T23:39:05.078Z,23.20
2019-01-19T23:41:31.047Z,23.20
2019-01-19T23:43:57.112Z,23.10
2019-01-19T23:46:23.059Z,23.10
2019-01-19T23:48:49.045Z,23.10
2019-01-19T23:51:15.089Z,23.10
2019-01-19T23:53:41.011Z,23.10
2019-01-19T23:56:06.988Z,23.00
2019-01-19T23:58:33.039Z,23.00
